Time;durP1;ratioP1;P1;durP2;ratioP2;P2;SDS_P1;SDS_P2;PMS_P1;PMS_P2;Temp;Humidity;BMP_temperature;BMP_pressure;BME280_temperature;BME280_humidity;BME280_pressure;Samples;Min_cycle;Max_cycle;Signal;HPM_P1;HPM_P2
2023/07/01 00:01:30;;;;;;;5.70;2.20;;;18.10;99.90;;;;;;4999326;28;20444;-79
2023/07/01 00:03:57;;;;;;;5.95;2.42;;;18.00;99.90;;;;;;4999124;28;20057;-78
2023/07/01 00:06:23;;;;;;;8.88;2.60;;;18.10;99.90;;;;;;4998263;28;20043;-80
2023/07/01 00:08:50;;;;;;;4.78;2.13;;;18.10;99.90;;;;;;4999032;28;20054;-79
2023/07/01 00:11:17;;;;;;;6.07;2.10;;;18.10;99.90;;;;;;4998468;28;20484;-78
2023/07/01 00:13:43;;;;;;;5.63;2.55;;;18.10;99.90;;;;;;4999183;28;20038;-78
2023/07/01 00:16:13;;;;;;;4.88;2.40;;;18.20;99.90;;;;;;4982051;28;20049;-80
2023/07/01 00:18:40;;;;;;;5.47;2.47;;;18.10;99.90;;;;;;4997939;28;20096;-78
2023/07/01 00:21:07;;;;;;;6.15;2.33;;;18.10;99.90;;;;;;4980760;28;20129;-79
2023/07/01 00:23:34;;;;;;;5.32;2.10;;;18.10;99.90;;;;;;4997340;28;20046;-78
2023/07/01 00:26:00;;;;;;;5.05;2.10;;;18.10;99.90;;;;;;4997861;28;20129;-80
2023/07/01 00:28:27;;;;;;;5.60;1.90;;;18.10;99.90;;;;;;4999130;28;20054;-79
2023/07/01 00:30:54;;;;;;;4.85;2.08;;;18.10;99.90;;;;;;4997770;28;20038;-79
2023/07/01 00:33:20;;;;;;;8.15;2.33;;;18.10;99.90;;;;;;4998370;28;20045;-77
2023/07/01 00:35:49;;;;;;;5.53;2.15;;;18.10;99.90;;;;;;4998586;28;20042;-79
2023/07/01 00:38:16;;;;;;;5.18;2.10;;;18.10;99.90;;;;;;4998120;28;20460;-77
2023/07/01 00:40:43;;;;;;;5.72;2.00;;;18.10;99.90;;;;;;4998577;28;20046;-79
2023/07/01 00:43:11;;;;;;;5.47;2.10;;;18.10;99.90;;;;;;4998210;28;20044;-78
2023/07/01 00:48:08;;;;;;;5.63;2.00;;;18.10;99.90;;;;;;4998676;28;20034;-79
2023/07/01 00:50:35;;;;;;;5.03;2.10;;;18.00;99.90;;;;;;4997858;28;20461;-77
2023/07/01 00:53:02;;;;;;;5.15;2.20;;;18.00;99.90;;;;;;4996230;28;20104;-77
2023/07/01 00:55:29;;;;;;;7.88;2.42;;;18.00;99.90;;;;;;4980758;28;20046;-80
2023/07/01 00:57:55;;;;;;;4.97;2.00;;;18.00;99.90;;;;;;4997143;28;20046;-78
2023/07/01 01:00:22;;;;;;;4.72;2.00;;;17.90;99.90;;;;;;4998107;28;20046;-79
2023/07/01 01:02:51;;;;;;;4.70;1.85;;;17.90;99.90;;;;;;4980807;28;20378;-79
2023/07/01 01:05:18;;;;;;;5.00;1.88;;;17.90;99.90;;;;;;4997178;28;20069;-80
2023/07/01 01:07:45;;;;;;;5.45;1.80;;;17.90;99.90;;;;;;4980943;28;20061;-77
2023/07/01 01:10:12;;;;;;;5.28;2.03;;;17.90;99.90;;;;;;4997861;28;20492;-80
2023/07/01 01:12:38;;;;;;;5.03;1.85;;;17.90;99.90;;;;;;4996935;28;20042;-78
2023/07/01 01:15:05;;;;;;;6.00;1.70;;;17.90;99.90;;;;;;4998213;28;20078;-78
2023/07/01 01:17:32;;;;;;;5.70;2.03;;;17.90;99.90;;;;;;4997430;28;20043;-78
2023/07/01 01:19:59;;;;;;;5.18;1.85;;;17.90;99.90;;;;;;4998065;28;20069;-79
2023/07/01 01:22:25;;;;;;;4.72;1.80;;;17.90;99.90;;;;;;4997711;28;20054;-79
2023/07/01 01:24:54;;;;;;;3.80;1.50;;;18.00;99.90;;;;;;4996899;28;20060;-79
2023/07/01 01:27:21;;;;;;;4.30;1.67;;;18.00;99.90;;;;;;4980792;28;20362;-79
2023/07/01 01:29:48;;;;;;;4.97;1.60;;;18.00;99.90;;;;;;4980897;28;20050;-78
2023/07/01 01:32:14;;;;;;;4.30;1.70;;;18.00;99.90;;;;;;4996385;28;20053;-79
2023/07/01 01:34:41;;;;;;;4.00;1.42;;;18.00;99.90;;;;;;4980673;28;20046;-78
2023/07/01 01:37:08;;;;;;;3.88;1.42;;;18.00;99.90;;;;;;4997727;28;20054;-78
2023/07/01 01:39:35;;;;;;;3.40;1.40;;;18.00;99.90;;;;;;4979629;28;20050;-78
2023/07/01 01:42:02;;;;;;;5.57;1.60;;;18.00;99.90;;;;;;4980102;28;20054;-78
2023/07/01 01:44:30;;;;;;;4.93;1.20;;;18.00;99.90;;;;;;4995574;28;20364;-78
2023/07/01 01:46:57;;;;;;;3.70;1.30;;;18.10;99.90;;;;;;4980109;28;20047;-78
2023/07/01 01:49:24;;;;;;;3.58;1.38;;;18.10;99.90;;;;;;4997245;28;20057;-78
2023/07/01 01:51:51;;;;;;;8.10;1.25;;;18.10;99.90;;;;;;4996136;28;20512;-79
2023/07/01 01:54:18;;;;;;;4.18;1.35;;;18.10;99.90;;;;;;4997069;28;20038;-78
2023/07/01 01:56:45;;;;;;;5.07;1.52;;;18.10;99.90;;;;;;4996180;28;20057;-78
2023/07/01 01:59:11;;;;;;;4.28;1.30;;;18.10;99.90;;;;;;4979197;28;20038;-77
2023/07/01 02:01:38;;;;;;;2.95;1.30;;;18.10;99.90;;;;;;4979843;28;20049;-79
2023/07/01 02:04:05;;;;;;;6.97;1.40;;;18.10;99.90;;;;;;4996242;28;20418;-79
2023/07/01 02:06:34;;;;;;;3.90;1.30;;;18.10;99.90;;;;;;4996892;28;20066;-78
2023/07/01 02:09:04;;;;;;;3.30;1.20;;;18.10;99.90;;;;;;4983393;28;20457;-79
2023/07/01 02:11:31;;;;;;;2.83;1.00;;;18.10;99.90;;;;;;4994978;28;20050;-78
2023/07/01 02:13:57;;;;;;;4.38;1.20;;;18.10;99.90;;;;;;4996191;28;20077;-77
2023/07/01 02:16:24;;;;;;;2.95;1.20;;;18.10;99.90;;;;;;5012113;28;20073;-78
2023/07/01 02:18:51;;;;;;;2.60;1.20;;;18.10;99.90;;;;;;4995211;28;20046;-78
2023/07/01 02:21:18;;;;;;;1.63;1.00;;;18.10;99.90;;;;;;4996420;28;20081;-78
2023/07/01 02:23:45;;;;;;;4.70;1.70;;;18.20;99.90;;;;;;5012154;28;20097;-77
2023/07/01 02:26:11;;;;;;;3.90;1.00;;;18.20;99.90;;;;;;4995587;28;20342;-78
2023/07/01 02:28:39;;;;;;;4.72;0.98;;;18.10;99.90;;;;;;5011968;28;20093;-78
2023/07/01 02:31:05;;;;;;;3.17;1.20;;;18.20;99.90;;;;;;4994871;28;20043;-78
2023/07/01 02:33:32;;;;;;;6.10;1.15;;;18.10;99.90;;;;;;4995638;28;20438;-80
2023/07/01 02:36:00;;;;;;;2.42;1.08;;;18.10;99.90;;;;;;4995762;28;20108;-77
2023/07/01 02:38:27;;;;;;;4.03;1.05;;;18.00;99.90;;;;;;4995590;28;20053;-78
2023/07/01 02:40:54;;;;;;;3.28;1.13;;;18.00;99.90;;;;;;4996147;28;20042;-79
2023/07/01 02:43:21;;;;;;;4.88;1.20;;;18.00;99.90;;;;;;4996465;28;20058;-79
2023/07/01 02:45:48;;;;;;;4.70;1.20;;;18.00;99.90;;;;;;5010707;28;20054;-78
2023/07/01 02:48:14;;;;;;;1.90;1.00;;;18.00;99.90;;;;;;4995454;28;20104;-78
2023/07/01 02:50:41;;;;;;;2.30;1.00;;;18.00;99.90;;;;;;4995338;28;20042;-79
2023/07/01 02:53:08;;;;;;;4.50;1.20;;;18.10;99.90;;;;;;4995309;28;20046;-78
2023/07/01 02:55:37;;;;;;;5.30;1.23;;;18.10;99.90;;;;;;5011460;28;20492;-80
2023/07/01 02:58:03;;;;;;;3.20;1.10;;;18.10;99.90;;;;;;4994558;28;20081;-78
2023/07/01 03:00:30;;;;;;;2.25;0.90;;;18.10;99.90;;;;;;5011353;28;20046;-78
2023/07/01 03:03:05;;;;;;;4.15;1.10;;;18.10;99.90;;;;;;4994736;28;20046;-79
2023/07/01 03:05:35;;;;;;;2.08;1.00;;;18.20;99.90;;;;;;5010454;28;20130;-79
2023/07/01 03:08:03;;;;;;;1.95;0.90;;;18.10;99.90;;;;;;4995681;28;20042;-77
2023/07/01 03:10:29;;;;;;;2.80;1.00;;;18.10;99.90;;;;;;4994774;28;20132;-78
2023/07/01 03:12:56;;;;;;;3.35;0.90;;;18.10;99.90;;;;;;4977650;28;20385;-79
2023/07/01 03:15:23;;;;;;;2.88;1.13;;;18.10;99.90;;;;;;4995852;28;20073;-78
2023/07/01 03:17:50;;;;;;;4.50;0.90;;;18.10;99.90;;;;;;4994088;28;20049;-77
2023/07/01 03:20:23;;;;;;;1.60;0.90;;;18.10;99.90;;;;;;4978107;28;20393;-79
2023/07/01 03:22:53;;;;;;;4.28;1.20;;;18.10;99.90;;;;;;4995746;28;20384;-79
2023/07/01 03:25:21;;;;;;;3.40;1.20;;;18.10;99.90;;;;;;4977894;28;20173;-78
2023/07/01 03:27:48;;;;;;;3.33;1.05;;;18.00;99.90;;;;;;4995583;28;20042;-80
2023/07/01 03:30:14;;;;;;;3.70;1.20;;;18.00;99.90;;;;;;4978551;28;20097;-78
2023/07/01 03:32:42;;;;;;;2.47;1.00;;;18.00;99.90;;;;;;4977317;28;20531;-78
2023/07/01 03:35:09;;;;;;;2.70;1.00;;;17.90;99.90;;;;;;4995432;28;20046;-77
2023/07/01 03:37:36;;;;;;;4.40;1.50;;;17.80;99.90;;;;;;4994743;28;20070;-80
2023/07/01 03:40:04;;;;;;;3.83;1.20;;;17.80;99.90;;;;;;4994896;28;20046;-78
2023/07/01 03:42:30;;;;;;;4.32;1.10;;;17.80;99.90;;;;;;4995091;28;20141;-80
2023/07/01 03:44:59;;;;;;;3.78;1.13;;;17.70;99.90;;;;;;4994463;28;20046;-79
2023/07/01 03:47:26;;;;;;;20.85;1.38;;;17.60;99.90;;;;;;4995552;28;20424;-79
2023/07/01 03:49:53;;;;;;;4.75;1.13;;;17.60;99.90;;;;;;4995405;28;20049;-80
2023/07/01 03:52:20;;;;;;;4.00;0.93;;;17.50;99.90;;;;;;4994251;28;20101;-79
2023/07/01 03:54:47;;;;;;;4.78;1.10;;;17.50;99.90;;;;;;4995240;28;20461;-79
2023/07/01 03:57:13;;;;;;;2.90;1.10;;;17.30;99.90;;;;;;4995405;28;20066;-78
2023/07/01 03:59:40;;;;;;;2.63;1.02;;;17.30;99.90;;;;;;4994402;28;20042;-78
2023/07/01 04:02:07;;;;;;;3.38;1.20;;;17.20;99.90;;;;;;4995122;28;20053;-80
2023/07/01 04:04:33;;;;;;;3.20;1.20;;;17.20;99.90;;;;;;4994447;28;20112;-76
2023/07/01 04:07:00;;;;;;;2.85;1.10;;;17.10;99.90;;;;;;4995097;28;20049;-79
2023/07/01 04:09:27;;;;;;;5.68;1.27;;;17.00;99.90;;;;;;4995270;28;20110;-79
2023/07/01 04:11:53;;;;;;;5.75;1.30;;;17.00;99.90;;;;;;4993754;28;20077;-79
2023/07/01 04:14:23;;;;;;;2.90;1.00;;;16.90;99.90;;;;;;4978077;28;20385;-80
2023/07/01 04:16:50;;;;;;;2.83;1.00;;;16.90;99.90;;;;;;4994906;28;20090;-79
2023/07/01 04:19:17;;;;;;;2.05;1.02;;;16.90;99.90;;;;;;4994197;28;20061;-79
2023/07/01 04:21:44;;;;;;;2.13;1.02;;;16.90;99.90;;;;;;4994850;28;20046;-78
2023/07/01 04:24:11;;;;;;;2.70;1.00;;;16.90;99.90;;;;;;4994596;28;20122;-78
2023/07/01 04:26:41;;;;;;;2.47;0.93;;;17.00;99.90;;;;;;4995069;28;20418;-79
2023/07/01 04:29:09;;;;;;;3.13;0.95;;;17.00;99.90;;;;;;4994844;28;20052;-79
2023/07/01 04:31:36;;;;;;;2.85;1.08;;;16.90;99.90;;;;;;4995470;28;20339;-78
2023/07/01 04:34:02;;;;;;;3.83;1.17;;;17.00;99.90;;;;;;4981499;28;20153;-78
2023/07/01 04:36:30;;;;;;;3.05;1.20;;;16.90;99.90;;;;;;4998556;28;20428;-79
2023/07/01 04:38:57;;;;;;;7.63;1.58;;;16.90;99.90;;;;;;4997932;28;20050;-80
2023/07/01 04:41:24;;;;;;;3.95;1.30;;;17.00;99.90;;;;;;4998686;28;20078;-78
2023/07/01 04:43:51;;;;;;;4.70;1.30;;;17.00;99.90;;;;;;4981289;28;20112;-78
2023/07/01 04:46:19;;;;;;;8.02;1.45;;;17.00;99.90;;;;;;4997654;28;20133;-79
2023/07/01 04:48:46;;;;;;;5.60;1.40;;;17.00;99.90;;;;;;4998653;28;20445;-78
2023/07/01 04:51:12;;;;;;;3.60;1.35;;;17.10;99.90;;;;;;4997290;28;20102;-80
2023/07/01 04:53:39;;;;;;;4.60;1.55;;;17.10;99.90;;;;;;4998250;28;20101;-79
2023/07/01 04:56:06;;;;;;;4.65;1.50;;;17.10;99.90;;;;;;4998299;28;20171;-80
2023/07/01 04:58:34;;;;;;;5.85;1.67;;;17.10;99.90;;;;;;4997503;28;20085;-77
2023/07/01 05:01:00;;;;;;;4.05;1.50;;;17.10;99.90;;;;;;4997874;28;20097;-79
2023/07/01 05:03:27;;;;;;;6.13;1.75;;;17.20;99.90;;;;;;4998387;28;20050;-79
2023/07/01 05:05:55;;;;;;;6.10;1.77;;;17.10;99.90;;;;;;4997087;28;20039;-79
2023/07/01 05:08:22;;;;;;;5.00;1.60;;;17.10;99.90;;;;;;4997886;28;20035;-79
2023/07/01 05:10:49;;;;;;;6.03;1.70;;;17.20;99.90;;;;;;4997162;28;20047;-80
2023/07/01 05:13:15;;;;;;;6.03;2.05;;;17.20;99.90;;;;;;4997572;28;20125;-78
2023/07/01 05:15:44;;;;;;;4.88;1.63;;;17.10;99.90;;;;;;4997900;28;20042;-80
2023/07/01 05:18:11;;;;;;;4.72;1.60;;;17.10;99.90;;;;;;4979929;28;20456;-78
2023/07/01 05:20:37;;;;;;;7.75;2.13;;;17.10;99.90;;;;;;4997868;28;20069;-78
2023/07/01 05:23:04;;;;;;;5.18;1.83;;;17.20;99.90;;;;;;4997608;28;20054;-80
2023/07/01 05:25:33;;;;;;;8.43;1.90;;;17.20;99.90;;;;;;4996803;28;20461;-78
2023/07/01 05:28:00;;;;;;;7.63;2.05;;;17.20;99.90;;;;;;4997783;28;20074;-77
2023/07/01 05:30:26;;;;;;;8.02;1.67;;;17.20;99.90;;;;;;4997851;28;20369;-77
2023/07/01 05:32:53;;;;;;;6.82;2.00;;;17.20;99.90;;;;;;4996449;28;20097;-77
2023/07/01 05:35:20;;;;;;;8.88;1.98;;;17.20;99.90;;;;;;4997609;28;20452;-80
2023/07/01 05:37:46;;;;;;;7.20;2.13;;;17.20;99.90;;;;;;4996884;28;20484;-80
2023/07/01 05:40:13;;;;;;;6.70;2.20;;;17.20;99.90;;;;;;4997580;28;20093;-80
2023/07/01 05:42:40;;;;;;;8.57;2.10;;;17.30;99.90;;;;;;4996742;28;20424;-80
2023/07/01 05:45:09;;;;;;;8.93;2.05;;;17.30;99.90;;;;;;4996411;28;20042;-79
2023/07/01 05:47:35;;;;;;;8.20;2.22;;;17.30;99.90;;;;;;4997397;28;20382;-80
2023/07/01 05:50:02;;;;;;;5.70;2.00;;;17.30;99.90;;;;;;4997447;28;20046;-80
2023/07/01 05:52:29;;;;;;;9.50;3.45;;;17.30;99.90;;;;;;4996082;28;20125;-78
2023/07/01 05:54:57;;;;;;;8.93;2.25;;;17.40;99.90;;;;;;4996119;28;20116;-79
2023/07/01 05:57:23;;;;;;;8.45;2.47;;;17.30;99.90;;;;;;4997181;28;20494;-78
2023/07/01 05:59:50;;;;;;;8.10;2.40;;;17.40;99.90;;;;;;4997170;28;20046;-80
2023/07/01 06:02:17;;;;;;;6.80;2.40;;;17.40;99.90;;;;;;4996998;28;20113;-78
2023/07/01 06:04:43;;;;;;;9.80;2.40;;;17.30;99.90;;;;;;4996077;28;20104;-79
2023/07/01 06:07:10;;;;;;;8.45;2.50;;;17.20;99.90;;;;;;4996598;28;20042;-80
2023/07/01 06:09:37;;;;;;;7.88;2.38;;;17.20;99.90;;;;;;4988141;28;20061;-79
2023/07/01 06:12:04;;;;;;;7.53;2.47;;;17.20;99.90;;;;;;4995988;28;20125;-78
2023/07/01 06:14:30;;;;;;;9.48;2.42;;;17.10;99.90;;;;;;4996813;28;20473;-78
2023/07/01 06:16:57;;;;;;;8.60;2.63;;;17.00;99.90;;;;;;4996657;28;20124;-79
2023/07/01 06:19:24;;;;;;;12.30;3.03;;;17.00;99.90;;;;;;4996002;28;20039;-80
2023/07/01 06:21:50;;;;;;;7.28;2.53;;;17.00;99.90;;;;;;4996457;28;20084;-79
2023/07/01 06:24:17;;;;;;;8.18;2.45;;;17.00;99.90;;;;;;4995899;28;20045;-79
2023/07/01 06:29:31;;;;;;;9.63;2.55;;;17.10;99.90;;;;;;4996875;28;20050;-81
2023/07/01 06:31:57;;;;;;;7.85;2.47;;;17.10;99.90;;;;;;4995459;28;20434;-80
2023/07/01 06:34:24;;;;;;;5.88;1.80;;;17.00;99.90;;;;;;4996207;28;20465;-79
2023/07/01 06:36:52;;;;;;;6.30;1.50;;;17.00;99.90;;;;;;4996730;28;20082;-80
2023/07/01 06:39:19;;;;;;;5.25;1.60;;;17.00;99.90;;;;;;4995938;28;20134;-80
2023/07/01 06:41:45;;;;;;;3.90;1.30;;;17.00;99.90;;;;;;4996160;28;20053;-81
2023/07/01 06:44:13;;;;;;;4.57;1.20;;;16.90;99.90;;;;;;4994617;28;20046;-81
2023/07/01 06:46:41;;;;;;;2.88;1.08;;;16.90;99.90;;;;;;4996453;28;20100;-81
2023/07/01 06:49:08;;;;;;;4.53;1.23;;;16.80;99.90;;;;;;4996423;28;20077;-80
2023/07/01 06:51:34;;;;;;;3.20;1.20;;;16.90;99.90;;;;;;4982855;28;20043;-80
2023/07/01 06:54:01;;;;;;;3.60;1.15;;;17.00;99.90;;;;;;4976189;28;20043;-81
2023/07/01 06:59:13;;;;;;;4.82;1.27;;;17.10;99.90;;;;;;4975888;28;20057;-80
2023/07/01 07:01:40;;;;;;;2.38;1.00;;;17.20;99.90;;;;;;4976438;28;20121;-79
2023/07/01 07:04:07;;;;;;;4.72;1.10;;;17.20;99.90;;;;;;4974995;28;20050;-84
2023/07/01 07:06:34;;;;;;;2.92;1.15;;;17.40;99.90;;;;;;4961700;28;20122;-82
2023/07/01 07:09:01;;;;;;;4.70;1.30;;;17.50;99.90;;;;;;4976295;28;20054;-83
2023/07/01 07:11:28;;;;;;;3.28;1.13;;;17.60;99.90;;;;;;4974408;28;20043;-80
2023/07/01 07:13:54;;;;;;;3.60;1.13;;;17.60;99.90;;;;;;4959635;28;20085;-80
2023/07/01 07:16:21;;;;;;;3.35;1.10;;;17.60;99.90;;;;;;4975583;28;20057;-81
2023/07/01 07:18:51;;;;;;;4.40;1.40;;;17.60;99.90;;;;;;4975578;28;20145;-83
2023/07/01 07:21:18;;;;;;;6.18;1.35;;;17.60;99.90;;;;;;4984011;28;20381;-82
2023/07/01 07:23:44;;;;;;;5.20;1.67;;;17.70;99.90;;;;;;4995591;28;20481;-76
2023/07/01 07:26:11;;;;;;;3.10;1.10;;;17.70;99.90;;;;;;4994943;28;20038;-80
2023/07/01 07:28:38;;;;;;;3.88;1.20;;;17.70;99.90;;;;;;4990841;28;20462;-82
2023/07/01 07:31:07;;;;;;;3.28;1.27;;;17.70;99.90;;;;;;4990444;28;20046;-82
2023/07/01 07:33:34;;;;;;;4.78;1.27;;;17.70;99.90;;;;;;4995470;28;20429;-83
2023/07/01 07:36:01;;;;;;;2.63;1.15;;;17.70;99.90;;;;;;4985089;28;20030;-80
2023/07/01 07:38:28;;;;;;;3.90;1.35;;;17.80;99.90;;;;;;4994737;28;20066;-81
2023/07/01 07:40:55;;;;;;;2.92;1.23;;;17.80;99.90;;;;;;4994323;28;20034;-80
2023/07/01 07:43:22;;;;;;;6.03;1.48;;;17.90;99.90;;;;;;4994220;28;20145;-81
2023/07/01 07:45:49;;;;;;;7.07;1.25;;;17.80;99.90;;;;;;4993474;28;20034;-81
2023/07/01 07:48:15;;;;;;;2.95;1.15;;;17.90;99.90;;;;;;4994558;28;20073;-78
2023/07/01 07:50:42;;;;;;;4.10;1.38;;;17.90;99.90;;;;;;4994898;28;20039;-79
2023/07/01 07:53:09;;;;;;;2.83;1.20;;;18.00;99.90;;;;;;4994754;28;20073;-79
2023/07/01 07:55:36;;;;;;;2.80;1.20;;;18.00;99.90;;;;;;4993951;28;20474;-83
2023/07/01 07:58:02;;;;;;;2.97;1.10;;;18.00;99.90;;;;;;4994542;28;20039;-83
2023/07/01 08:00:29;;;;;;;3.67;1.33;;;18.00;99.90;;;;;;4993856;28;20046;-85
2023/07/01 08:02:56;;;;;;;4.00;1.20;;;18.00;99.90;;;;;;4993969;28;20061;-86
2023/07/01 08:05:24;;;;;;;4.57;1.42;;;18.10;99.90;;;;;;4995269;28;20050;-87
2023/07/01 08:07:51;;;;;;;4.35;1.60;;;18.10;99.90;;;;;;4998001;28;20053;-83
2023/07/01 08:10:18;;;;;;;4.57;1.40;;;18.30;99.90;;;;;;4999158;28;20050;-81
2023/07/01 08:12:45;;;;;;;3.65;1.23;;;18.50;99.90;;;;;;4997879;28;20045;-82
2023/07/01 08:15:13;;;;;;;4.93;1.30;;;18.60;99.90;;;;;;4998715;28;20046;-80
2023/07/01 08:17:41;;;;;;;3.22;1.05;;;18.70;99.90;;;;;;4997982;28;20496;-81
2023/07/01 08:20:08;;;;;;;4.30;1.50;;;18.90;99.90;;;;;;4998873;28;20038;-80
2023/07/01 08:22:34;;;;;;;2.22;1.00;;;19.00;99.90;;;;;;4997669;28;20404;-79
2023/07/01 08:25:02;;;;;;;2.85;1.10;;;19.20;99.90;;;;;;4997888;28;20049;-77
2023/07/01 08:27:28;;;;;;;2.30;0.90;;;19.30;99.90;;;;;;4998479;28;20046;-78
2023/07/01 08:29:55;;;;;;;2.63;1.00;;;19.30;99.90;;;;;;4998740;28;20042;-76
2023/07/01 08:32:22;;;;;;;2.45;1.02;;;19.30;99.90;;;;;;4997296;28;20054;-80
2023/07/01 08:34:50;;;;;;;2.40;1.10;;;19.20;99.90;;;;;;4997586;28;20050;-80
2023/07/01 08:37:16;;;;;;;7.03;1.20;;;19.30;99.90;;;;;;4998261;28;20519;-79
2023/07/01 08:39:43;;;;;;;2.70;1.15;;;19.30;99.90;;;;;;4996908;28;20358;-79
2023/07/01 08:42:10;;;;;;;3.83;1.10;;;19.30;99.90;;;;;;4997774;28;20508;-79
2023/07/01 08:44:38;;;;;;;3.35;1.00;;;19.50;99.90;;;;;;4997439;28;20057;-81
2023/07/01 08:47:04;;;;;;;1.75;0.90;;;19.60;99.90;;;;;;4997369;28;20130;-80
2023/07/01 08:49:31;;;;;;;3.47;0.90;;;19.70;99.90;;;;;;4998502;28;20061;-82
2023/07/01 08:51:58;;;;;;;2.60;0.93;;;19.70;99.90;;;;;;4997014;28;20042;-81
2023/07/01 08:54:25;;;;;;;3.85;1.10;;;19.70;99.90;;;;;;4997944;28;20093;-82
2023/07/01 08:56:52;;;;;;;4.65;1.10;;;19.60;99.90;;;;;;4998163;28;20042;-80
2023/07/01 08:59:18;;;;;;;5.95;1.10;;;19.50;99.90;;;;;;4980128;28;20046;-80
2023/07/01 09:01:45;;;;;;;3.00;1.23;;;19.70;99.90;;;;;;4997774;28;20070;-80
2023/07/01 09:04:15;;;;;;;2.70;1.00;;;19.90;99.90;;;;;;4993550;28;20108;-80
2023/07/01 09:06:42;;;;;;;4.30;0.90;;;19.90;99.90;;;;;;4984368;28;20085;-80
2023/07/01 09:09:09;;;;;;;2.60;1.10;;;19.90;99.90;;;;;;4978309;28;20552;-80
2023/07/01 09:11:36;;;;;;;2.72;0.90;;;19.80;99.90;;;;;;4960342;28;20114;-80
2023/07/01 09:14:03;;;;;;;4.07;1.35;;;19.70;99.90;;;;;;4978353;28;20426;-82
2023/07/01 09:16:32;;;;;;;1.55;1.08;;;19.70;99.90;;;;;;4968016;28;20054;-80
2023/07/01 09:18:59;;;;;;;1.95;0.88;;;19.80;99.90;;;;;;4962541;28;20602;-80
2023/07/01 09:21:26;;;;;;;3.45;0.90;;;20.00;99.90;;;;;;4996680;28;20045;-79
2023/07/01 09:23:55;;;;;;;2.20;0.90;;;20.00;99.90;;;;;;4997329;28;20046;-80
2023/07/01 09:26:26;;;;;;;2.45;1.00;;;20.10;99.90;;;;;;4996591;28;20483;-79
2023/07/01 09:28:54;;;;;;;1.50;0.90;;;20.30;99.90;;;;;;4997364;28;20461;-80
2023/07/01 09:31:20;;;;;;;2.53;1.00;;;20.70;99.90;;;;;;4996596;28;20535;-80
2023/07/01 09:33:47;;;;;;;4.60;1.30;;;20.90;99.90;;;;;;4997290;28;20066;-80
2023/07/01 09:36:15;;;;;;;4.05;1.30;;;21.00;99.90;;;;;;4997584;28;20066;-79
2023/07/01 09:38:42;;;;;;;4.18;1.00;;;21.20;99.90;;;;;;4996419;28;20069;-79
2023/07/01 09:41:08;;;;;;;3.28;1.05;;;21.30;99.90;;;;;;4997097;28;20095;-79
2023/07/01 09:43:35;;;;;;;2.80;1.00;;;21.40;99.90;;;;;;4997006;28;20094;-80
2023/07/01 09:46:04;;;;;;;3.22;1.10;;;21.20;99.90;;;;;;4994338;28;20080;-80
2023/07/01 09:48:32;;;;;;;6.45;1.52;;;21.10;99.90;;;;;;4997836;28;20046;-79
2023/07/01 09:50:59;;;;;;;4.15;1.42;;;20.90;99.90;;;;;;4994985;28;20043;-80
2023/07/01 09:53:25;;;;;;;4.07;1.38;;;20.70;99.90;;;;;;4997095;28;20039;-80
2023/07/01 09:55:54;;;;;;;3.47;1.30;;;20.70;99.90;;;;;;4996680;28;20046;-77
2023/07/01 09:58:21;;;;;;;3.10;1.10;;;20.80;99.90;;;;;;4995517;28;20432;-78
2023/07/01 10:00:48;;;;;;;4.75;1.30;;;20.80;99.90;;;;;;4979191;28;20054;-81
2023/07/01 10:03:15;;;;;;;3.45;1.25;;;20.90;99.90;;;;;;4979346;28;20054;-80
2023/07/01 10:05:42;;;;;;;3.10;1.10;;;21.10;99.90;;;;;;4995673;28;20038;-77
2023/07/01 10:08:09;;;;;;;2.92;1.00;;;21.10;99.90;;;;;;4996227;28;20043;-77
2023/07/01 10:10:36;;;;;;;3.58;0.93;;;21.10;99.90;;;;;;4996005;28;20042;-81
2023/07/01 10:13:03;;;;;;;2.65;1.00;;;21.00;99.90;;;;;;4987194;28;20043;-79
2023/07/01 10:15:31;;;;;;;4.15;1.02;;;21.20;99.90;;;;;;4992074;28;20042;-80
2023/07/01 10:17:58;;;;;;;1.83;0.90;;;21.30;99.90;;;;;;4978766;28;20113;-78
2023/07/01 10:20:24;;;;;;;3.88;1.10;;;21.30;99.90;;;;;;4996041;28;20039;-77
2023/07/01 10:22:51;;;;;;;4.68;1.23;;;21.00;99.90;;;;;;4996136;28;20050;-81
2023/07/01 10:25:19;;;;;;;3.58;1.17;;;20.70;99.90;;;;;;4995155;28;20042;-77
2023/07/01 10:27:46;;;;;;;3.55;1.20;;;20.50;99.90;;;;;;4996253;28;20043;-80
2023/07/01 10:30:12;;;;;;;4.88;1.20;;;20.60;99.90;;;;;;4994969;28;20046;-79
2023/07/01 10:32:39;;;;;;;6.18;1.95;;;20.80;99.90;;;;;;4994346;28;20038;-80
2023/07/01 10:35:06;;;;;;;3.28;1.20;;;20.80;99.90;;;;;;4996138;28;20125;-78
2023/07/01 10:37:33;;;;;;;3.67;1.10;;;20.70;99.90;;;;;;4995401;28;20525;-79
2023/07/01 10:39:59;;;;;;;3.22;1.05;;;20.70;99.90;;;;;;4996381;28;20050;-80
2023/07/01 10:42:32;;;;;;;3.45;1.20;;;20.80;99.90;;;;;;4976423;28;20093;-80
2023/07/01 10:44:59;;;;;;;4.15;1.20;;;20.90;99.90;;;;;;4975557;28;20089;-78
2023/07/01 10:47:26;;;;;;;5.05;1.10;;;21.10;99.90;;;;;;4995859;28;20512;-79
2023/07/01 10:49:52;;;;;;;3.03;1.10;;;21.10;99.90;;;;;;4995830;28;20039;-80
2023/07/01 10:52:19;;;;;;;3.30;1.20;;;21.10;99.90;;;;;;4994673;28;20130;-80
2023/07/01 10:54:47;;;;;;;3.88;1.10;;;21.50;99.90;;;;;;4994722;28;20524;-80
2023/07/01 10:57:14;;;;;;;4.03;1.10;;;21.60;99.90;;;;;;4994996;28;20461;-79
2023/07/01 10:59:40;;;;;;;3.17;1.20;;;21.70;99.90;;;;;;4994324;28;20050;-78
2023/07/01 11:02:07;;;;;;;4.18;1.27;;;22.00;99.90;;;;;;4995337;28;20038;-79
2023/07/01 11:04:34;;;;;;;4.50;1.40;;;22.20;99.90;;;;;;4994717;28;20548;-81
2023/07/01 11:07:00;;;;;;;4.25;1.30;;;22.50;99.90;;;;;;4995425;28;20349;-78
2023/07/01 11:09:32;;;;;;;4.05;1.50;;;22.90;99.90;;;;;;4995124;28;20065;-80
2023/07/01 11:11:59;;;;;;;3.85;1.65;;;23.90;99.90;;;;;;4994286;28;20058;-81
2023/07/01 11:14:25;;;;;;;5.65;1.75;;;24.20;99.90;;;;;;4995374;28;20039;-80
2023/07/01 11:16:53;;;;;;;5.20;1.90;;;24.50;99.90;;;;;;4995400;28;20408;-78
2023/07/01 11:19:20;;;;;;;4.07;1.67;;;24.50;99.90;;;;;;4993406;28;20417;-78
2023/07/01 11:21:48;;;;;;;3.97;1.67;;;24.60;99.90;;;;;;4993037;28;20039;-81
2023/07/01 11:24:15;;;;;;;4.75;1.70;;;24.50;99.90;;;;;;4994633;28;20034;-80
2023/07/01 11:26:43;;;;;;;5.90;1.60;;;24.20;99.90;;;;;;4995169;28;20038;-79
2023/07/01 11:29:12;;;;;;;4.65;1.55;;;23.70;99.90;;;;;;4995363;28;20500;-79
2023/07/01 11:31:39;;;;;;;4.65;1.40;;;23.10;99.90;;;;;;4994132;28;20046;-83
2023/07/01 11:34:06;;;;;;;4.18;1.45;;;22.60;99.90;;;;;;4993590;28;20042;-83
2023/07/01 11:36:36;;;;;;;3.53;1.20;;;22.50;99.90;;;;;;4978638;28;20052;-82
2023/07/01 11:39:03;;;;;;;3.92;1.30;;;22.20;99.90;;;;;;4977671;28;20109;-78
2023/07/01 11:41:30;;;;;;;3.72;1.30;;;22.10;99.90;;;;;;4995036;28;20126;-79
2023/07/01 11:43:56;;;;;;;4.07;1.30;;;22.10;99.90;;;;;;4969761;28;20054;-79
2023/07/01 11:49:08;;;;;;;2.92;1.20;;;22.30;99.90;;;;;;4994350;28;20047;-84
2023/07/01 11:51:35;;;;;;;4.20;1.40;;;22.70;99.90;;;;;;4992454;28;20066;-83
2023/07/01 11:54:02;;;;;;;5.53;1.35;;;22.90;99.90;;;;;;4978145;28;20449;-82
2023/07/01 11:56:31;;;;;;;3.38;1.23;;;23.20;99.90;;;;;;4995247;28;20049;-81
2023/07/01 11:58:58;;;;;;;3.15;1.25;;;23.70;99.90;;;;;;4976954;28;20050;-81
2023/07/01 12:01:27;;;;;;;5.22;1.38;;;23.80;99.90;;;;;;4989071;28;20078;-81
2023/07/01 12:03:53;;;;;;;4.38;1.40;;;24.20;99.90;;;;;;4975699;28;20133;-80
2023/07/01 12:06:22;;;;;;;4.07;1.45;;;24.40;99.90;;;;;;4974854;28;20439;-82
2023/07/01 12:08:49;;;;;;;3.20;1.30;;;24.20;99.90;;;;;;4991739;28;20093;-81
2023/07/01 12:11:32;;;;;;;3.95;1.50;;;23.80;99.90;;;;;;4974420;28;20129;-80
2023/07/01 12:13:59;;;;;;;4.50;1.30;;;23.90;99.90;;;;;;4975642;28;20074;-80
2023/07/01 12:16:26;;;;;;;3.53;1.38;;;23.70;99.90;;;;;;4990838;28;20348;-80
2023/07/01 12:18:53;;;;;;;3.95;1.50;;;23.20;99.90;;;;;;4974855;28;20051;-80
2023/07/01 12:21:19;;;;;;;4.95;1.40;;;23.20;99.90;;;;;;4975387;28;20113;-80
2023/07/01 12:23:47;;;;;;;4.93;1.52;;;22.70;99.90;;;;;;4975186;28;20129;-83
2023/07/01 12:29:00;;;;;;;5.05;1.92;;;22.70;99.90;;;;;;4978050;28;20458;-81
2023/07/01 12:31:26;;;;;;;7.43;2.45;;;22.60;99.90;;;;;;4973873;28;20443;-81
2023/07/01 12:33:53;;;;;;;4.65;1.50;;;22.90;99.90;;;;;;4978039;28;20052;-80
2023/07/01 12:36:21;;;;;;;5.00;1.65;;;23.20;99.90;;;;;;4992658;28;20130;-82
2023/07/01 12:38:47;;;;;;;4.43;1.77;;;23.40;99.90;;;;;;4992735;28;20038;-82
2023/07/01 12:41:14;;;;;;;4.90;1.80;;;23.70;99.90;;;;;;4994708;28;20046;-82
2023/07/01 12:43:41;;;;;;;5.40;1.83;;;24.80;99.90;;;;;;4994496;28;20100;-84
2023/07/01 12:46:07;;;;;;;5.97;1.70;;;24.90;99.90;;;;;;5008773;28;20046;-82
2023/07/01 12:48:35;;;;;;;5.32;1.70;;;25.50;99.90;;;;;;5009704;28;20540;-82
2023/07/01 12:51:01;;;;;;;4.18;1.70;;;26.20;99.90;;;;;;4993508;28;20100;-81
2023/07/01 12:53:28;;;;;;;5.15;2.03;;;26.50;99.90;;;;;;4994403;28;20046;-80
2023/07/01 12:55:55;;;;;;;5.53;2.00;;;26.10;99.90;;;;;;4974966;28;20145;-79
2023/07/01 12:58:21;;;;;;;6.20;2.00;;;25.70;99.90;;;;;;4977026;28;20114;-79
2023/07/01 13:00:48;;;;;;;5.72;1.70;;;25.10;99.90;;;;;;4977867;28;20576;-81